Time;durP1;ratioP1;P1;durP2;ratioP2;P2;SDS_P1;SDS_P2;PMS_P1;PMS_P2;Temp;Humidity;BMP_temperature;BMP_pressure;BME280_temperature;BME280_humidity;BME280_pressure;Samples;Min_cycle;Max_cycle;Signal;HPM_P1;HPM_P2
2021/01/30 00:00:23;;;;;;;7.00;2.00;;;16.70;99.90;;;;;;5070188;28;20408;-60
2021/01/30 00:02:48;;;;;;;6.25;1.60;;;16.70;99.90;;;;;;5071021;28;20032;-59
2021/01/30 00:05:14;;;;;;;7.03;2.00;;;16.70;99.90;;;;;;5071036;28;20039;-60
2021/01/30 00:07:40;;;;;;;6.88;1.67;;;16.70;99.90;;;;;;5071517;28;20524;-59
2021/01/30 00:10:07;;;;;;;6.53;1.80;;;16.70;99.90;;;;;;5071326;28;20499;-60
2021/01/30 00:12:33;;;;;;;9.98;1.88;;;16.70;99.90;;;;;;5071598;28;20108;-60
2021/01/30 00:14:58;;;;;;;7.50;2.10;;;16.60;99.90;;;;;;5070974;28;20123;-59
2021/01/30 00:17:24;;;;;;;8.32;2.17;;;16.60;99.90;;;;;;5070746;28;20032;-59
2021/01/30 00:19:49;;;;;;;7.72;1.92;;;16.60;99.90;;;;;;5071192;28;20111;-59
2021/01/30 00:22:18;;;;;;;6.88;1.80;;;16.60;99.90;;;;;;5070920;28;20032;-59
2021/01/30 00:24:46;;;;;;;9.35;2.17;;;16.60;99.90;;;;;;5070971;28;20024;-60
2021/01/30 00:27:14;;;;;;;10.50;2.22;;;16.60;99.90;;;;;;5071219;28;20103;-60
2021/01/30 00:29:40;;;;;;;9.75;2.20;;;16.50;99.90;;;;;;5070404;28;20036;-59
2021/01/30 00:32:08;;;;;;;9.05;2.33;;;16.50;99.90;;;;;;5070964;28;20029;-60
2021/01/30 00:34:35;;;;;;;7.82;1.98;;;16.50;99.90;;;;;;5070764;28;20020;-59
2021/01/30 00:37:15;;;;;;;8.48;2.15;;;16.50;99.90;;;;;;5071293;28;20025;-60
2021/01/30 00:39:41;;;;;;;8.50;2.13;;;16.50;99.90;;;;;;5070007;28;20025;-60
2021/01/30 00:42:09;;;;;;;10.93;2.22;;;16.50;99.90;;;;;;5071150;28;20544;-59
2021/01/30 00:44:35;;;;;;;7.85;2.13;;;16.50;99.90;;;;;;5070263;28;20051;-59
2021/01/30 00:47:02;;;;;;;7.72;2.15;;;16.50;99.90;;;;;;5071090;28;20572;-60
2021/01/30 00:49:27;;;;;;;9.00;1.98;;;16.50;99.90;;;;;;5071420;28;20051;-59
2021/01/30 00:51:54;;;;;;;10.77;2.35;;;16.50;99.90;;;;;;5071021;28;20063;-59
2021/01/30 00:54:20;;;;;;;7.53;2.28;;;16.40;99.90;;;;;;5070897;28;20468;-59
2021/01/30 00:56:53;;;;;;;7.93;2.35;;;16.40;99.90;;;;;;5070246;28;20074;-59
2021/01/30 00:59:20;;;;;;;8.15;2.35;;;16.40;99.90;;;;;;5070644;28;20436;-59
2021/01/30 01:01:46;;;;;;;7.82;2.40;;;16.40;99.90;;;;;;5070102;28;20056;-59
2021/01/30 01:04:12;;;;;;;9.63;2.17;;;16.40;99.90;;;;;;5073876;28;20030;-59
2021/01/30 01:06:38;;;;;;;7.82;1.90;;;16.40;99.90;;;;;;5074821;28;20032;-59
2021/01/30 01:09:07;;;;;;;9.05;2.20;;;16.40;99.90;;;;;;5074694;28;20112;-60
2021/01/30 01:11:34;;;;;;;9.27;2.38;;;16.30;99.90;;;;;;5074958;28;20020;-59
2021/01/30 01:14:00;;;;;;;10.23;2.60;;;16.30;99.90;;;;;;5074570;28;20131;-59
2021/01/30 01:16:26;;;;;;;7.97;2.38;;;16.30;99.90;;;;;;5073997;28;20095;-59
2021/01/30 01:18:51;;;;;;;9.70;1.90;;;16.30;99.90;;;;;;5074278;28;20115;-59
2021/01/30 01:21:17;;;;;;;10.60;2.40;;;16.30;99.90;;;;;;5074754;28;20072;-59
2021/01/30 01:23:43;;;;;;;9.13;2.47;;;16.30;99.90;;;;;;5074211;28;20036;-59
2021/01/30 01:26:13;;;;;;;10.35;2.80;;;16.30;99.90;;;;;;5074373;28;20067;-59
2021/01/30 01:28:39;;;;;;;9.73;2.30;;;16.30;99.90;;;;;;5073719;28;20012;-59
2021/01/30 01:31:05;;;;;;;10.13;2.50;;;16.20;99.90;;;;;;5074340;28;20081;-59
2021/01/30 01:33:31;;;;;;;11.32;2.67;;;16.30;99.90;;;;;;5074658;28;20032;-59
2021/01/30 01:35:57;;;;;;;8.25;2.35;;;16.20;99.90;;;;;;5074825;28;20426;-60
2021/01/30 01:38:24;;;;;;;6.85;1.92;;;16.20;99.90;;;;;;5074202;28;20036;-60
2021/01/30 01:40:49;;;;;;;10.77;2.50;;;16.20;99.90;;;;;;5074038;28;20396;-60
2021/01/30 01:43:21;;;;;;;8.50;2.58;;;16.20;99.90;;;;;;5073997;28;20025;-60
2021/01/30 01:46:24;;;;;;;10.82;2.53;;;16.20;99.90;;;;;;5073417;28;20074;-59
2021/01/30 01:48:52;;;;;;;8.48;2.30;;;16.20;99.90;;;;;;5062947;28;20029;-60
2021/01/30 01:51:37;;;;;;;9.35;2.63;;;16.20;99.90;;;;;;5074197;28;20487;-60
2021/01/30 01:54:07;;;;;;;10.98;2.63;;;16.20;99.90;;;;;;5070995;28;20085;-60
2021/01/30 01:56:36;;;;;;;8.52;2.00;;;16.20;99.90;;;;;;5073348;28;20489;-60
2021/01/30 01:59:08;;;;;;;8.82;2.33;;;16.20;99.90;;;;;;5074177;28;20060;-59
2021/01/30 02:01:36;;;;;;;10.43;2.38;;;16.10;99.90;;;;;;5073319;28;20040;-60
2021/01/30 02:04:06;;;;;;;8.05;2.15;;;16.20;99.90;;;;;;5073644;28;20469;-60
2021/01/30 02:06:35;;;;;;;11.38;2.25;;;16.10;99.90;;;;;;5073259;28;20430;-60
2021/01/30 02:09:01;;;;;;;8.90;2.55;;;16.10;99.90;;;;;;5073853;28;20489;-59
2021/01/30 02:11:26;;;;;;;11.82;2.40;;;16.10;99.90;;;;;;5073778;28;20107;-60
2021/01/30 02:13:55;;;;;;;8.43;2.28;;;16.10;99.90;;;;;;5073033;28;20218;-60
2021/01/30 02:16:35;;;;;;;7.97;2.30;;;16.10;99.90;;;;;;5072546;28;20075;-59
2021/01/30 02:19:42;;;;;;;9.60;2.60;;;16.00;99.90;;;;;;5064311;28;20028;-60
2021/01/30 02:22:36;;;;;;;8.25;2.10;;;16.10;99.90;;;;;;5073184;28;20032;-61
2021/01/30 02:25:20;;;;;;;;;;;16.10;99.90;;;;;;5041505;28;20036;-60
2021/01/30 02:28:01;;;;;;;11.35;2.58;;;16.10;99.90;;;;;;5073066;28;19904;-60
2021/01/30 02:30:42;;;;;;;11.85;2.50;;;16.10;99.90;;;;;;5073634;28;20427;-60
2021/01/30 02:33:38;;;;;;;9.38;2.33;;;16.10;99.90;;;;;;5073382;28;20055;-60
2021/01/30 02:36:41;;;;;;;9.60;2.30;;;16.10;99.90;;;;;;5073247;28;20024;-60
2021/01/30 02:39:10;;;;;;;11.82;2.80;;;16.10;99.90;;;;;;5072808;28;20050;-60
2021/01/30 02:41:40;;;;;;;9.82;2.40;;;16.00;99.90;;;;;;5072653;28;20075;-60
2021/01/30 02:44:09;;;;;;;9.43;2.20;;;16.00;99.90;;;;;;5072314;28;20044;-60
2021/01/30 02:46:40;;;;;;;9.55;2.70;;;16.00;99.90;;;;;;5072507;28;20029;-60
2021/01/30 02:49:13;;;;;;;8.77;2.47;;;16.00;99.90;;;;;;5073164;28;20029;-60
2021/01/30 02:51:45;;;;;;;12.63;2.73;;;16.00;99.90;;;;;;5072921;28;20518;-60
2021/01/30 02:54:12;;;;;;;8.18;2.20;;;16.10;99.90;;;;;;5072763;28;20064;-60
2021/01/30 02:56:39;;;;;;;9.50;2.17;;;16.00;99.90;;;;;;5072449;28;20108;-60
2021/01/30 02:59:18;;;;;;;10.38;2.15;;;16.00;99.90;;;;;;5072408;28;20546;-60
2021/01/30 03:01:43;;;;;;;9.88;2.50;;;16.00;99.90;;;;;;5072308;28;20162;-60
2021/01/30 03:04:23;;;;;;;10.65;2.50;;;16.00;99.90;;;;;;5072487;28;20016;-59
2021/01/30 03:07:00;;;;;;;7.80;1.85;;;16.00;99.90;;;;;;5072507;28;20024;-60
2021/01/30 03:09:31;;;;;;;9.90;2.50;;;16.00;99.90;;;;;;5071743;28;20032;-60
2021/01/30 03:12:06;;;;;;;12.57;2.50;;;16.00;99.90;;;;;;5072538;28;20052;-59
2021/01/30 03:14:37;;;;;;;11.10;2.70;;;16.00;99.90;;;;;;5072813;28;20100;-61
2021/01/30 03:17:04;;;;;;;7.93;2.13;;;16.00;99.90;;;;;;5071920;28;20020;-59
2021/01/30 03:19:32;;;;;;;8.75;2.17;;;16.00;99.90;;;;;;5072614;28;20060;-60
2021/01/30 03:22:06;;;;;;;8.77;2.47;;;16.00;99.90;;;;;;5072841;28;20032;-60
2021/01/30 03:24:33;;;;;;;8.77;2.25;;;16.00;99.90;;;;;;5070631;28;20025;-60
2021/01/30 03:26:59;;;;;;;8.15;1.52;;;16.00;99.90;;;;;;5072521;28;20029;-60
2021/01/30 03:29:24;;;;;;;10.30;2.20;;;15.90;99.90;;;;;;5071753;28;20630;-59
2021/01/30 03:31:50;;;;;;;9.15;1.95;;;15.90;99.90;;;;;;5072152;28;20024;-60
2021/01/30 03:34:17;;;;;;;9.80;2.10;;;15.90;99.90;;;;;;5071225;28;20028;-59
2021/01/30 03:36:43;;;;;;;9.70;2.38;;;15.90;99.90;;;;;;5071963;28;20086;-59
2021/01/30 03:39:13;;;;;;;11.30;2.75;;;15.90;99.90;;;;;;5071854;28;20162;-59
2021/01/30 03:41:40;;;;;;;10.90;2.70;;;15.90;99.90;;;;;;5071170;28;20096;-59
2021/01/30 03:44:05;;;;;;;9.40;2.28;;;15.90;99.90;;;;;;5071890;28;20028;-59
2021/01/30 03:46:31;;;;;;;10.45;2.40;;;15.90;99.90;;;;;;5071616;28;20024;-59
2021/01/30 03:48:57;;;;;;;8.23;2.13;;;15.90;99.90;;;;;;5071953;28;20487;-59
2021/01/30 03:51:22;;;;;;;10.27;2.42;;;15.90;99.90;;;;;;5071913;28;20129;-59
2021/01/30 03:53:48;;;;;;;9.85;2.63;;;15.90;99.90;;;;;;5071686;28;20013;-60
2021/01/30 03:56:14;;;;;;;10.45;2.28;;;15.90;99.90;;;;;;5071304;28;20492;-60
2021/01/30 03:58:40;;;;;;;9.60;2.35;;;15.90;99.90;;;;;;5071175;28;20024;-60
2021/01/30 04:01:06;;;;;;;11.65;2.50;;;15.80;99.90;;;;;;5071211;28;20093;-59
2021/01/30 04:03:33;;;;;;;8.80;2.35;;;15.80;99.90;;;;;;5071200;28;20016;-60
2021/01/30 04:05:59;;;;;;;9.15;2.53;;;15.80;99.90;;;;;;5071904;28;20427;-60
2021/01/30 04:08:25;;;;;;;11.10;2.40;;;15.80;99.90;;;;;;5071396;28;20028;-60
2021/01/30 04:10:50;;;;;;;10.13;2.67;;;15.80;99.90;;;;;;5070775;28;20033;-60
2021/01/30 04:13:18;;;;;;;11.10;2.55;;;15.80;99.90;;;;;;5071256;28;20032;-60
2021/01/30 04:15:44;;;;;;;8.02;2.45;;;15.80;99.90;;;;;;5071106;28;20029;-60
2021/01/30 04:18:11;;;;;;;10.55;2.60;;;15.80;99.90;;;;;;5070932;28;20067;-60
2021/01/30 04:20:37;;;;;;;10.88;2.50;;;15.70;99.90;;;;;;5070983;28;20082;-60
2021/01/30 04:23:04;;;;;;;8.55;2.10;;;15.70;99.90;;;;;;5071518;28;20036;-60
2021/01/30 04:25:29;;;;;;;11.45;2.60;;;15.80;99.90;;;;;;5070779;28;20536;-60
2021/01/30 04:27:56;;;;;;;8.20;2.50;;;15.80;99.90;;;;;;5071166;28;20111;-60
2021/01/30 04:30:24;;;;;;;11.30;2.55;;;15.70;99.90;;;;;;5069595;28;20480;-60
2021/01/30 04:32:50;;;;;;;8.95;2.50;;;15.80;99.90;;;;;;5070692;28;20484;-60
2021/01/30 04:35:19;;;;;;;8.10;2.25;;;15.70;99.90;;;;;;5071039;28;20063;-60
2021/01/30 04:37:45;;;;;;;12.63;2.78;;;15.70;99.90;;;;;;5070322;28;20031;-60
2021/01/30 04:40:21;;;;;;;11.75;2.40;;;15.70;99.90;;;;;;5070451;28;20028;-59
2021/01/30 04:43:06;;;;;;;6.95;1.92;;;15.70;99.90;;;;;;5070813;28;20067;-59
2021/01/30 04:45:52;;;;;;;8.13;2.20;;;15.70;99.90;;;;;;5071032;28;20051;-60
2021/01/30 04:48:25;;;;;;;9.65;2.53;;;15.70;99.90;;;;;;5067669;28;20033;-60
2021/01/30 04:51:15;;;;;;;8.48;2.10;;;15.70;99.90;;;;;;5071003;28;20021;-60
2021/01/30 04:53:51;;;;;;;10.23;2.30;;;15.70;99.90;;;;;;5070848;28;20098;-60
2021/01/30 04:56:40;;;;;;;9.02;2.60;;;15.70;99.90;;;;;;5070757;28;20028;-59
2021/01/30 04:59:20;;;;;;;9.50;2.03;;;15.60;99.90;;;;;;5071190;28;20050;-60
2021/01/30 05:01:55;;;;;;;9.40;2.20;;;15.60;99.90;;;;;;5070309;28;20098;-60
2021/01/30 05:04:38;;;;;;;10.60;2.30;;;15.60;99.90;;;;;;5070571;28;20044;-60
2021/01/30 05:07:21;;;;;;;10.70;2.60;;;15.60;99.90;;;;;;5071149;28;20029;-60
2021/01/30 05:09:59;;;;;;;8.50;2.30;;;15.60;99.90;;;;;;5070154;28;20542;-60
2021/01/30 05:12:47;;;;;;;8.70;2.08;;;15.60;99.90;;;;;;5071204;28;20415;-60
2021/01/30 05:15:18;;;;;;;10.70;2.10;;;15.60;99.90;;;;;;5070880;28;20021;-60
2021/01/30 05:18:08;;;;;;;11.98;2.60;;;15.60;99.90;;;;;;5070047;28;20025;-60
2021/01/30 05:20:37;;;;;;;12.95;1.95;;;15.60;99.90;;;;;;5070471;28;20036;-60
2021/01/30 05:23:10;;;;;;;10.07;2.78;;;15.60;99.90;;;;;;5070802;28;20032;-60
2021/01/30 05:25:36;;;;;;;10.90;2.42;;;15.60;99.90;;;;;;5070318;28;20132;-60
2021/01/30 05:28:15;;;;;;;11.55;2.60;;;15.60;99.90;;;;;;5071091;28;20032;-59
2021/01/30 05:30:54;;;;;;;9.82;2.60;;;15.60;99.90;;;;;;5070360;28;20346;-60
2021/01/30 05:33:31;;;;;;;9.73;2.30;;;15.60;99.90;;;;;;5070291;28;20017;-59
2021/01/30 05:36:35;;;;;;;9.25;2.53;;;15.60;99.90;;;;;;5071100;28;20108;-59
2021/01/30 05:39:22;;;;;;;7.18;2.00;;;15.60;99.90;;;;;;5060927;28;20388;-59
2021/01/30 05:42:07;;;;;;;10.65;2.20;;;15.60;99.90;;;;;;5050373;28;20041;-59
2021/01/30 05:44:46;;;;;;;10.73;2.47;;;15.60;99.90;;;;;;5060900;28;20372;-60
2021/01/30 05:47:22;;;;;;;8.13;2.22;;;15.60;99.90;;;;;;5069447;28;20461;-59
2021/01/30 05:50:09;;;;;;;10.07;2.53;;;15.60;99.90;;;;;;5070885;28;20382;-59
2021/01/30 05:52:37;;;;;;;8.77;2.10;;;15.60;99.90;;;;;;5073722;28;20020;-60
2021/01/30 05:55:05;;;;;;;7.03;1.92;;;15.60;99.90;;;;;;5073736;28;20035;-59
2021/01/30 05:57:31;;;;;;;9.13;2.20;;;15.50;99.90;;;;;;5054347;28;20473;-59
2021/01/30 05:59:59;;;;;;;10.25;2.58;;;15.60;99.90;;;;;;5072932;28;20108;-60
2021/01/30 06:02:27;;;;;;;9.90;2.25;;;15.60;99.90;;;;;;5072937;28;20028;-60
2021/01/30 06:04:53;;;;;;;8.05;2.63;;;15.50;99.90;;;;;;5053681;28;20028;-60
2021/01/30 06:07:22;;;;;;;9.85;2.10;;;15.50;99.90;;;;;;5061849;28;20028;-60
2021/01/30 06:09:49;;;;;;;8.32;2.30;;;15.50;99.90;;;;;;5073406;28;20025;-60
2021/01/30 06:12:28;;;;;;;7.07;1.90;;;15.50;99.90;;;;;;5073762;28;20477;-61
2021/01/30 06:14:56;;;;;;;5.90;1.48;;;15.50;99.90;;;;;;5073241;28;20025;-60
2021/01/30 06:17:25;;;;;;;8.63;1.95;;;15.50;99.90;;;;;;5071993;28;20393;-60
2021/01/30 06:19:59;;;;;;;6.78;2.10;;;15.50;99.90;;;;;;5073333;28;20028;-59
2021/01/30 06:22:25;;;;;;;7.72;2.20;;;15.50;99.90;;;;;;5073300;28;20516;-60
2021/01/30 06:24:50;;;;;;;8.82;2.10;;;15.50;99.90;;;;;;5072997;28;20064;-60
2021/01/30 06:27:28;;;;;;;9.23;2.30;;;15.50;99.90;;;;;;5072928;28;20028;-60
2021/01/30 06:29:58;;;;;;;9.30;2.28;;;15.40;99.90;;;;;;5073121;28;20070;-59
2021/01/30 06:32:45;;;;;;;10.85;2.20;;;15.40;99.90;;;;;;5073258;28;20029;-60
2021/01/30 06:35:19;;;;;;;8.75;2.00;;;15.50;99.90;;;;;;5073248;28;20056;-60
2021/01/30 06:37:50;;;;;;;10.15;2.30;;;15.40;99.90;;;;;;5073308;28;20028;-59
2021/01/30 06:40:29;;;;;;;7.07;1.90;;;15.40;99.90;;;;;;5072210;28;20093;-61
2021/01/30 06:43:05;;;;;;;9.15;2.10;;;15.50;99.90;;;;;;5073143;28;20024;-59
2021/01/30 06:45:39;;;;;;;9.80;1.85;;;15.60;99.90;;;;;;5073164;28;20588;-61
2021/01/30 06:48:09;;;;;;;12.82;2.13;;;15.70;99.90;;;;;;5072781;28;20044;-61
2021/01/30 06:50:43;;;;;;;7.50;1.75;;;15.70;99.90;;;;;;5072859;28;20033;-59
2021/01/30 06:53:13;;;;;;;9.07;2.08;;;15.80;99.90;;;;;;5071915;28;20028;-60
2021/01/30 06:55:39;;;;;;;5.25;1.60;;;15.80;99.90;;;;;;5072675;28;20451;-60
2021/01/30 06:58:05;;;;;;;6.90;2.22;;;15.80;99.90;;;;;;5072921;28;20024;-60
2021/01/30 07:00:35;;;;;;;7.55;1.88;;;15.90;99.90;;;;;;5073285;28;20032;-59
2021/01/30 07:03:30;;;;;;;8.55;1.98;;;15.90;99.90;;;;;;5073177;28;20032;-60
2021/01/30 07:06:14;;;;;;;;;;;16.00;99.90;;;;;;5072441;28;20044;-61
2021/01/30 07:09:06;;;;;;;6.00;1.67;;;16.30;99.90;;;;;;5072626;28;19951;-61
2021/01/30 07:11:38;;;;;;;7.97;1.45;;;16.60;99.90;;;;;;5072005;28;20042;-62
2021/01/30 07:14:22;;;;;;;7.47;2.15;;;16.70;99.90;;;;;;5072827;28;20496;-61
2021/01/30 07:17:07;;;;;;;7.72;1.73;;;16.80;99.90;;;;;;5072049;28;20024;-61
2021/01/30 07:20:00;;;;;;;10.15;1.83;;;16.90;99.90;;;;;;5069015;28;20427;-62
2021/01/30 07:22:36;;;;;;;8.68;1.85;;;16.90;99.90;;;;;;5071551;28;20040;-62
2021/01/30 07:25:07;;;;;;;6.43;1.80;;;17.00;99.90;;;;;;5072203;28;20488;-61
2021/01/30 07:27:44;;;;;;;7.35;1.98;;;16.90;99.90;;;;;;5071821;28;20032;-62
2021/01/30 07:30:17;;;;;;;12.90;2.00;;;16.90;99.90;;;;;;5071865;28;20369;-62
2021/01/30 07:32:58;;;;;;;5.40;1.73;;;16.80;99.90;;;;;;5071754;28;20082;-62
2021/01/30 07:35:32;;;;;;;7.28;1.98;;;16.80;99.90;;;;;;5071943;28;20063;-62
2021/01/30 07:38:03;;;;;;;9.13;2.13;;;16.80;99.90;;;;;;5072639;28;20035;-63
2021/01/30 07:40:44;;;;;;;7.28;2.25;;;16.70;99.90;;;;;;5071876;28;20036;-61
2021/01/30 07:43:19;;;;;;;6.57;2.30;;;16.70;99.90;;;;;;5072224;28;20445;-62
2021/01/30 07:46:17;;;;;;;8.40;2.00;;;16.80;99.90;;;;;;5071912;28;20064;-62
2021/01/30 07:49:17;;;;;;;5.63;1.70;;;17.00;99.90;;;;;;5070717;28;20556;-63
2021/01/30 07:52:02;;;;;;;4.15;1.58;;;17.10;99.90;;;;;;5063643;28;20086;-64
2021/01/30 07:54:28;;;;;;;5.32;1.83;;;17.20;99.90;;;;;;5072206;28;20013;-66
2021/01/30 07:57:11;;;;;;;6.10;1.90;;;17.30;99.90;;;;;;5071404;28;20415;-68
2021/01/30 07:59:53;;;;;;;4.70;1.85;;;17.50;99.90;;;;;;5071631;28;20016;-64
2021/01/30 08:02:36;;;;;;;7.85;2.00;;;17.60;99.90;;;;;;5068144;28;20036;-65
2021/01/30 08:05:01;;;;;;;10.70;2.33;;;17.80;99.90;;;;;;5071125;28;20509;-63
2021/01/30 08:07:49;;;;;;;5.70;2.03;;;17.80;99.90;;;;;;5071776;28;20111;-66
2021/01/30 08:10:41;;;;;;;6.47;2.30;;;17.90;99.90;;;;;;5070904;28;20162;-64
2021/01/30 08:13:10;;;;;;;6.82;2.45;;;18.00;99.90;;;;;;5071047;28;20380;-65
2021/01/30 08:15:39;;;;;;;6.63;2.25;;;18.00;99.90;;;;;;5071435;28;20060;-66
2021/01/30 08:18:34;;;;;;;5.57;1.90;;;18.00;99.90;;;;;;5071201;28;20111;-65
2021/01/30 08:21:07;;;;;;;8.48;2.15;;;18.00;99.90;;;;;;5071657;28;20441;-65
2021/01/30 08:23:52;;;;;;;5.85;2.00;;;18.00;99.90;;;;;;5070993;28;20093;-65
2021/01/30 08:26:36;;;;;;;6.03;2.08;;;17.90;99.90;;;;;;5071410;28;20021;-65
2021/01/30 08:29:26;;;;;;;5.50;1.70;;;17.90;99.90;;;;;;5071020;28;20036;-64
2021/01/30 08:32:00;;;;;;;5.35;2.30;;;17.80;99.90;;;;;;5071161;28;20051;-65
2021/01/30 08:34:31;;;;;;;5.63;2.13;;;17.80;99.90;;;;;;5071292;28;20041;-66
2021/01/30 08:37:11;;;;;;;5.43;2.08;;;17.80;99.90;;;;;;5071904;28;20028;-66
2021/01/30 08:39:57;;;;;;;5.28;2.00;;;17.70;99.90;;;;;;5070803;28;20539;-64
2021/01/30 08:42:23;;;;;;;6.28;2.40;;;17.70;99.90;;;;;;5070916;28;20044;-66
2021/01/30 08:44:48;;;;;;;5.55;2.05;;;17.60;99.90;;;;;;5070949;28;20035;-62
2021/01/30 08:47:32;;;;;;;4.95;2.00;;;17.70;99.90;;;;;;5071070;28;20024;-63
2021/01/30 08:49:59;;;;;;;4.53;1.97;;;17.60;99.90;;;;;;5070935;28;20124;-63
2021/01/30 08:52:55;;;;;;;5.18;2.00;;;17.60;99.90;;;;;;5071153;28;20776;-63
2021/01/30 08:55:43;;;;;;;4.53;1.98;;;17.60;99.90;;;;;;5071237;28;20032;-62
2021/01/30 08:58:38;;;;;;;6.47;2.13;;;17.60;99.90;;;;;;5062474;28;20041;-62
2021/01/30 09:01:06;;;;;;;3.80;1.80;;;17.60;99.90;;;;;;5051025;28;20503;-61
2021/01/30 09:03:48;;;;;;;4.25;1.95;;;17.60;99.90;;;;;;5050873;28;20071;-60
2021/01/30 09:06:38;;;;;;;4.30;2.00;;;17.50;99.90;;;;;;5051281;28;20076;-63
2021/01/30 09:09:17;;;;;;;3.88;1.70;;;17.60;99.90;;;;;;5061915;28;20606;-61
2021/01/30 09:11:50;;;;;;;4.38;2.08;;;17.50;99.90;;;;;;5070246;28;20033;-62
2021/01/30 09:14:18;;;;;;;4.22;1.70;;;17.50;99.90;;;;;;5071128;28;20031;-62
2021/01/30 09:16:56;;;;;;;5.07;1.83;;;17.50;99.90;;;;;;5070871;28;20059;-63
2021/01/30 09:19:49;;;;;;;5.35;1.90;;;17.50;99.90;;;;;;5069774;28;20028;-63
2021/01/30 09:22:38;;;;;;;4.07;1.90;;;17.50;99.90;;;;;;5070963;28;20044;-63
2021/01/30 09:25:13;;;;;;;4.93;1.58;;;17.50;99.90;;;;;;5082540;28;20024;-61
2021/01/30 09:28:14;;;;;;;4.53;1.70;;;17.50;99.90;;;;;;5093460;28;20384;-63
2021/01/30 09:30:45;;;;;;;5.45;2.15;;;17.40;99.90;;;;;;5083760;28;20044;-62
2021/01/30 09:33:21;;;;;;;4.88;2.00;;;17.50;99.90;;;;;;5080926;28;20047;-60
2021/01/30 09:35:48;;;;;;;4.03;1.35;;;17.50;99.90;;;;;;5076381;28;20032;-60
2021/01/30 09:38:33;;;;;;;4.75;1.60;;;17.50;99.90;;;;;;5085602;28;20091;-61
2021/01/30 09:41:34;;;;;;;5.80;1.90;;;17.50;99.90;;;;;;5089365;28;20040;-60
2021/01/30 09:44:22;;;;;;;3.20;1.55;;;17.50;99.90;;;;;;5095197;28;20028;-61
2021/01/30 09:46:53;;;;;;;4.55;1.77;;;17.50;99.90;;;;;;5093550;28;20031;-60
2021/01/30 09:49:26;;;;;;;4.50;1.83;;;17.50;99.90;;;;;;5086276;28;20027;-62
2021/01/30 09:51:55;;;;;;;4.60;1.83;;;17.40;99.90;;;;;;5074027;28;20387;-62
2021/01/30 09:54:24;;;;;;;4.15;1.85;;;17.50;99.90;;;;;;5074617;28;20028;-62
2021/01/30 09:56:53;;;;;;;4.60;2.00;;;17.40;99.90;;;;;;5074130;28;20035;-61
2021/01/30 09:59:25;;;;;;;4.65;1.73;;;17.50;99.90;;;;;;5073426;28;20024;-61
2021/01/30 10:01:50;;;;;;;5.55;2.00;;;17.50;99.90;;;;;;5073681;28;20062;-61
2021/01/30 10:04:27;;;;;;;3.60;1.55;;;17.50;99.90;;;;;;5073991;28;20049;-61
2021/01/30 10:07:26;;;;;;;3.60;1.60;;;17.50;99.90;;;;;;5074154;28;20044;-62
2021/01/30 10:09:52;;;;;;;5.72;2.05;;;17.50;99.90;;;;;;5073237;28;20036;-61
2021/01/30 10:12:21;;;;;;;5.13;1.90;;;17.50;99.90;;;;;;5077557;28;20031;-61
2021/01/30 10:14:53;;;;;;;4.47;1.98;;;17.50;99.90;;;;;;5081871;28;20465;-60
2021/01/30 10:17:26;;;;;;;3.47;1.50;;;17.50;99.90;;;;;;5073902;28;20028;-59
2021/01/30 10:19:58;;;;;;;4.97;1.73;;;17.50;99.90;;;;;;5052530;28;20450;-61
2021/01/30 10:22:37;;;;;;;5.22;2.25;;;17.50;99.90;;;;;;5069838;28;20073;-61
2021/01/30 10:25:10;;;;;;;4.55;1.88;;;17.50;99.90;;;;;;5073739;28;20021;-60
2021/01/30 10:27:36;;;;;;;4.75;1.92;;;17.50;99.90;;;;;;5073226;28;20029;-61
2021/01/30 10:30:07;;;;;;;5.40;1.98;;;17.50;99.90;;;;;;5073517;28;20028;-60
2021/01/30 10:32:49;;;;;;;4.70;1.80;;;17.50;99.90;;;;;;5075881;28;20023;-60
2021/01/30 10:35:21;;;;;;;5.07;1.83;;;17.50;99.90;;;;;;5077404;28;20027;-60
2021/01/30 10:37:59;;;;;;;3.95;1.95;;;17.50;99.90;;;;;;5090502;28;20069;-60
2021/01/30 10:40:40;;;;;;;5.60;1.70;;;17.50;99.90;;;;;;5084154;28;20032;-61
2021/01/30 10:43:17;;;;;;;4.07;1.70;;;17.50;99.90;;;;;;5073523;28;20046;-60
2021/01/30 10:45:51;;;;;;;5.25;2.10;;;17.50;99.90;;;;;;5073464;28;20376;-61
2021/01/30 10:48:21;;;;;;;4.95;1.65;;;17.50;99.90;;;;;;5073397;28;20353;-60
2021/01/30 10:50:48;;;;;;;3.83;1.80;;;17.50;99.90;;;;;;5072935;28;20427;-60
2021/01/30 10:53:15;;;;;;;4.80;1.70;;;17.50;99.90;;;;;;5073769;28;20110;-61
2021/01/30 10:55:41;;;;;;;3.78;1.70;;;17.50;99.90;;;;;;5073127;28;20369;-60
2021/01/30 10:58:19;;;;;;;5.97;1.73;;;17.50;99.90;;;;;;5073310;28;20032;-59
2021/01/30 11:01:10;;;;;;;3.42;1.48;;;17.50;99.90;;;;;;5072994;28;20032;-60
2021/01/30 11:03:41;;;;;;;4.60;1.70;;;17.50;99.90;;;;;;5072688;28;20036;-61
2021/01/30 11:06:33;;;;;;;4.55;1.77;;;17.50;99.90;;;;;;5072349;28;20066;-61
2021/01/30 11:09:16;;;;;;;4.63;1.50;;;17.50;99.90;;;;;;5070843;28;20032;-61
2021/01/30 11:11:44;;;;;;;3.70;1.60;;;17.50;99.90;;;;;;5052705;28;20021;-61
2021/01/30 11:14:14;;;;;;;3.08;1.35;;;17.50;99.90;;;;;;5052825;28;20025;-61
2021/01/30 11:16:40;;;;;;;6.05;1.83;;;17.50;99.90;;;;;;5072014;28;20036;-63
2021/01/30 11:19:23;;;;;;;3.15;1.30;;;17.50;99.90;;;;;;5074168;28;20487;-60
2021/01/30 11:22:10;;;;;;;3.53;1.70;;;17.50;99.90;;;;;;5076381;28;20085;-61
2021/01/30 11:24:47;;;;;;;3.13;1.55;;;17.50;99.90;;;;;;5059166;28;20039;-60
2021/01/30 11:27:33;;;;;;;2.95;1.45;;;17.50;99.90;;;;;;5083381;28;20465;-62
2021/01/30 11:30:22;;;;;;;2.97;1.63;;;17.50;99.90;;;;;;5072716;28;20036;-60
2021/01/30 11:32:53;;;;;;;3.03;1.17;;;17.40;99.90;;;;;;5058358;28;20028;-60
2021/01/30 11:35:36;;;;;;;3.63;1.55;;;17.50;99.90;;;;;;5071095;28;20028;-61
2021/01/30 11:38:05;;;;;;;1.95;1.10;;;17.50;99.90;;;;;;5072715;28;20480;-60
2021/01/30 11:40:32;;;;;;;2.45;1.10;;;17.50;99.90;;;;;;5072351;28;20142;-61
2021/01/30 11:42:58;;;;;;;2.35;1.00;;;17.50;99.90;;;;;;5072542;28;20035;-61
2021/01/30 11:45:24;;;;;;;3.65;1.08;;;17.40;99.90;;;;;;5072150;28;20031;-62
2021/01/30 11:47:50;;;;;;;2.28;1.60;;;17.40;99.90;;;;;;5071029;28;20495;-59
2021/01/30 11:50:16;;;;;;;2.92;1.60;;;17.10;99.90;;;;;;5071788;28;20028;-60
2021/01/30 11:52:41;;;;;;;2.40;1.63;;;16.70;99.90;;;;;;5071469;28;20373;-60
2021/01/30 11:55:07;;;;;;;2.80;1.55;;;16.10;99.90;;;;;;5071969;28;20103;-59
2021/01/30 11:57:33;;;;;;;3.10;1.60;;;15.80;99.90;;;;;;5071461;28;20471;-60
2021/01/30 11:59:59;;;;;;;3.35;1.50;;;15.60;99.90;;;;;;5072260;28;20141;-60
2021/01/30 12:02:37;;;;;;;2.33;1.65;;;15.50;99.90;;;;;;5071662;28;20043;-60
2021/01/30 12:05:06;;;;;;;2.58;1.60;;;15.30;99.90;;;;;;5071908;28;20020;-59
2021/01/30 12:07:31;;;;;;;2.78;1.48;;;15.20;99.90;;;;;;5072093;28;20025;-59
2021/01/30 12:09:57;;;;;;;1.50;1.40;;;15.20;99.90;;;;;;5072096;28;20070;-59
2021/01/30 12:12:23;;;;;;;1.83;1.33;;;15.00;99.90;;;;;;5071861;28;20036;-60
2021/01/30 12:14:48;;;;;;;1.52;1.15;;;14.90;99.90;;;;;;5071258;28;20024;-60
2021/01/30 12:17:19;;;;;;;2.03;1.60;;;14.80;99.90;;;;;;5071702;28;20025;-59
2021/01/30 12:19:45;;;;;;;2.45;1.30;;;14.70;99.90;;;;;;5071130;28;20039;-60
2021/01/30 12:22:10;;;;;;;1.95;1.70;;;14.50;99.90;;;;;;5071567;28;20056;-59
2021/01/30 12:24:36;;;;;;;1.83;1.63;;;14.30;99.90;;;;;;5071390;28;20055;-59
2021/01/30 12:27:02;;;;;;;2.70;1.58;;;14.20;99.90;;;;;;5070914;28;20358;-60
2021/01/30 12:29:27;;;;;;;1.98;1.42;;;14.10;99.90;;;;;;5070221;28;20029;-60
2021/01/30 12:31:53;;;;;;;1.63;1.40;;;14.10;99.90;;;;;;5069719;28;20063;-58
2021/01/30 12:34:20;;;;;;;2.53;1.90;;;14.10;99.90;;;;;;5070127;28;20020;-59
2021/01/30 12:36:46;;;;;;;1.50;1.00;;;14.20;99.90;;;;;;5070088;28;20107;-58
2021/01/30 12:39:11;;;;;;;2.95;0.93;;;14.70;99.90;;;;;;5070560;28;20096;-58
2021/01/30 12:41:37;;;;;;;3.17;0.90;;;15.10;99.90;;;;;;5070711;28;20477;-59
2021/01/30 12:44:03;;;;;;;1.85;0.73;;;15.30;99.90;;;;;;5070974;28;20029;-58
2021/01/30 12:46:43;;;;;;;2.50;0.88;;;15.50;99.90;;;;;;5071482;28;20036;-58
2021/01/30 12:49:09;;;;;;;1.67;0.70;;;15.60;99.90;;;;;;5070915;28;20110;-59
2021/01/30 12:51:35;;;;;;;2.33;0.70;;;15.70;99.90;;;;;;5070458;28;20028;-59
2021/01/30 12:54:00;;;;;;;4.32;0.80;;;15.80;99.90;;;;;;5071449;28;20032;-58
2021/01/30 12:56:26;;;;;;;1.45;0.80;;;15.90;99.90;;;;;;5070653;28;20038;-59
2021/01/30 12:58:51;;;;;;;0.95;0.65;;;15.90;99.90;;;;;;5071822;28;20025;-59
2021/01/30 13:01:17;;;;;;;1.52;0.60;;;16.00;99.90;;;;;;5075349;28;20045;-59
2021/01/30 13:03:42;;;;;;;2.42;0.70;;;16.00;99.90;;;;;;5075190;28;20078;-58
2021/01/30 13:06:08;;;;;;;2.03;0.80;;;16.00;99.90;;;;;;5075263;28;20020;-59
2021/01/30 13:08:34;;;;;;;1.65;0.57;;;16.00;99.90;;;;;;5075076;28;20409;-59
2021/01/30 13:10:59;;;;;;;1.88;0.93;;;16.10;99.90;;;;;;5075446;28;20055;-59
2021/01/30 13:13:25;;;;;;;1.48;0.70;;;16.10;99.90;;;;;;5075185;28;20103;-59
2021/01/30 13:15:50;;;;;;;1.45;0.50;;;16.20;99.90;;;;;;5075038;28;20021;-59